createdAt,value
2023-04-30T00:04:04.966Z,101174.23
2023-04-30T00:07:55.430Z,101174.90
2023-04-30T00:11:57.506Z,101174.80
2023-04-30T00:22:39.190Z,101180.24
2023-04-30T00:26:08.140Z,101184.73
2023-04-30T00:29:49.153Z,101189.21
2023-04-30T00:33:33.172Z,101196.77
2023-04-30T00:37:17.363Z,101199.04
2023-04-30T00:40:43.210Z,101197.35
2023-04-30T00:44:32.142Z,101202.81
2023-04-30T00:47:32.317Z,101203.66
2023-04-30T00:51:00.142Z,101206.85
2023-04-30T00:54:48.664Z,101214.45
2023-04-30T00:58:03.855Z,101213.50
2023-04-30T01:00:58.988Z,101216.04
2023-04-30T01:04:37.870Z,101218.77
2023-04-30T01:08:22.655Z,101221.52
2023-04-30T01:11:57.964Z,101225.73
2023-04-30T01:16:14.044Z,101224.15
2023-04-30T01:20:09.166Z,101228.81
2023-04-30T01:24:11.716Z,101224.96
2023-04-30T01:28:09.607Z,101223.56
2023-04-30T01:31:39.107Z,101234.01
2023-04-30T01:35:05.724Z,101237.96
2023-04-30T01:38:40.072Z,101236.13
2023-04-30T01:42:27.692Z,101236.23
2023-04-30T01:46:11.915Z,101236.95
2023-04-30T01:49:54.191Z,101243.58
2023-04-30T01:53:36.490Z,101249.27
2023-04-30T01:57:04.193Z,101253.88
2023-04-30T02:00:46.984Z,101256.16
2023-04-30T02:04:16.131Z,101261.41
2023-04-30T02:11:49.126Z,101269.71
2023-04-30T02:15:38.059Z,101273.73
2023-04-30T02:19:25.723Z,101276.38
2023-04-30T02:23:11.597Z,101281.18
2023-04-30T02:26:42.829Z,101290.30
2023-04-30T02:30:21.822Z,101286.73
2023-04-30T02:34:00.700Z,101284.38
2023-04-30T02:37:24.246Z,101283.83
2023-04-30T02:41:10.720Z,101285.05
2023-04-30T02:44:59.653Z,101287.90
2023-04-30T02:48:39.040Z,101285.92
2023-04-30T02:52:20.303Z,101289.14
2023-04-30T02:55:59.841Z,101293.77
2023-04-30T02:59:38.704Z,101299.50
2023-04-30T03:03:03.593Z,101300.11
2023-04-30T03:06:41.338Z,101302.27
2023-04-30T03:10:15.149Z,101306.84
2023-04-30T03:14:04.021Z,101308.52
2023-04-30T03:17:52.961Z,101305.22
2023-04-30T03:21:41.800Z,101310.16
2023-04-30T03:25:02.395Z,101311.74
2023-04-30T03:28:44.450Z,101321.38
2023-04-30T03:32:23.211Z,101322.84
2023-04-30T03:35:54.878Z,101322.59
2023-04-30T03:39:01.739Z,101324.41
2023-04-30T03:42:51.456Z,101333.87
2023-04-30T03:46:40.497Z,101341.63
2023-04-30T03:50:29.454Z,101350.24
2023-04-30T03:54:18.526Z,101358.26
2023-04-30T03:58:07.545Z,101364.60
2023-04-30T04:01:35.353Z,101370.73
2023-04-30T04:05:14.126Z,101373.33
2023-04-30T04:09:02.976Z,101376.38
2023-04-30T04:12:43.603Z,101379.25
2023-04-30T04:16:32.868Z,101383.46
2023-04-30T04:20:22.369Z,101387.13
2023-04-30T04:24:10.235Z,101391.06
2023-04-30T04:27:33.226Z,101395.77
2023-04-30T04:31:16.268Z,101400.22
2023-04-30T04:34:48.006Z,101412.13
2023-04-30T04:38:37.081Z,101414.30
2023-04-30T04:42:05.026Z,101419.25
2023-04-30T04:45:47.084Z,101421.89
2023-04-30T04:49:26.466Z,101424.39
2023-04-30T04:53:15.806Z,101426.16
2023-04-30T04:56:47.111Z,101426.50
2023-04-30T05:00:28.740Z,101428.16
2023-04-30T05:04:17.683Z,101432.71
2023-04-30T05:07:59.696Z,101439.65
2023-04-30T05:11:31.158Z,101438.40
2023-04-30T05:14:39.692Z,101439.30
2023-04-30T05:18:21.014Z,101440.00
2023-04-30T05:21:45.030Z,101439.61
2023-04-30T05:25:26.780Z,101449.05
2023-04-30T05:29:09.726Z,101451.45
2023-04-30T05:32:46.451Z,101458.50
2023-04-30T05:36:24.787Z,101462.69
2023-04-30T05:39:56.533Z,101468.98
2023-04-30T05:43:38.906Z,101473.94
2023-04-30T05:47:27.334Z,101479.67
2023-04-30T05:50:37.767Z,101481.78
2023-04-30T05:54:12.420Z,101480.14
2023-04-30T05:57:41.012Z,101490.49
2023-04-30T06:01:17.205Z,101487.20
2023-04-30T06:04:06.507Z,101494.84
2023-04-30T06:07:49.077Z,101498.02
2023-04-30T06:11:18.184Z,101497.08
2023-04-30T06:15:07.279Z,101504.52
2023-04-30T06:18:46.913Z,101505.76
2023-04-30T06:22:13.750Z,101507.53
2023-04-30T06:25:42.868Z,101510.10
2023-04-30T06:29:32.069Z,101512.98
2023-04-30T06:33:13.919Z,101515.90
2023-04-30T06:36:52.000Z,101520.73
2023-04-30T06:40:25.387Z,101520.97
2023-04-30T06:43:57.634Z,101522.92
2023-04-30T06:47:39.390Z,101520.77
2023-04-30T06:50:44.082Z,101525.73
2023-04-30T06:54:17.156Z,101521.89
2023-04-30T06:58:06.290Z,101526.79
2023-04-30T07:01:13.465Z,101529.80
2023-04-30T07:03:58.708Z,101527.56
2023-04-30T07:06:54.941Z,101525.15
2023-04-30T07:09:39.353Z,101528.98
2023-04-30T07:13:09.629Z,101526.69
2023-04-30T07:16:25.287Z,101523.52
2023-04-30T07:20:05.228Z,101524.61
2023-04-30T07:23:55.131Z,101517.38
2023-04-30T07:27:34.106Z,101520.14
2023-04-30T07:31:22.513Z,101524.47
2023-04-30T07:34:27.600Z,101520.91
2023-04-30T07:38:06.314Z,101525.69
2023-04-30T07:41:03.175Z,101522.73
2023-04-30T07:44:51.585Z,101529.89
2023-04-30T07:48:26.564Z,101532.77
2023-04-30T07:52:04.432Z,101533.86
2023-04-30T07:55:22.791Z,101534.84
2023-04-30T07:58:52.718Z,101533.42
2023-04-30T08:02:21.482Z,101535.82
2023-04-30T08:05:33.458Z,101539.64
2023-04-30T08:08:41.609Z,101541.85
2023-04-30T08:12:04.230Z,101538.33
2023-04-30T08:15:08.164Z,101538.02
2023-04-30T08:18:39.447Z,101541.56
2023-04-30T08:21:51.425Z,101550.73
2023-04-30T08:24:32.211Z,101553.96
2023-04-30T08:27:32.837Z,101552.38
2023-04-30T08:31:22.364Z,101549.88
2023-04-30T08:34:29.476Z,101553.81
2023-04-30T08:37:38.018Z,101553.67
2023-04-30T08:40:59.774Z,101557.83
2023-04-30T08:44:42.439Z,101559.61
2023-04-30T08:48:31.334Z,101557.86
2023-04-30T08:52:23.283Z,101559.92
2023-04-30T08:56:05.088Z,101565.81
2023-04-30T08:59:53.966Z,101568.33
2023-04-30T09:03:39.487Z,101568.06
2023-04-30T09:07:20.644Z,101564.56
2023-04-30T09:11:12.403Z,101567.52
2023-04-30T09:15:00.004Z,101569.44
2023-04-30T09:18:57.925Z,101574.93
2023-04-30T09:22:59.423Z,101582.06
2023-04-30T09:26:48.656Z,101579.55
2023-04-30T09:30:40.086Z,101568.56
2023-04-30T09:34:29.312Z,101578.91
2023-04-30T09:38:18.698Z,101586.77
2023-04-30T09:42:06.655Z,101580.40
2023-04-30T09:45:56.318Z,101580.32
2023-04-30T09:49:39.550Z,101577.95
2023-04-30T09:53:23.886Z,101578.89
2023-04-30T09:56:59.461Z,101578.51
2023-04-30T10:00:33.416Z,101577.48
2023-04-30T10:03:51.827Z,101581.65
2023-04-30T10:07:41.016Z,101575.54
2023-04-30T10:11:30.545Z,101569.29
2023-04-30T10:15:19.967Z,101561.05
2023-04-30T10:19:14.856Z,101560.80
2023-04-30T10:22:57.230Z,101553.58
2023-04-30T10:26:46.610Z,101558.76
2023-04-30T10:30:36.545Z,101553.38
2023-04-30T10:34:31.265Z,101555.95
2023-04-30T10:38:35.421Z,101554.52
2023-04-30T10:42:05.264Z,101558.21
2023-04-30T10:45:48.273Z,101539.59
2023-04-30T10:49:37.938Z,101536.02
2023-04-30T10:53:27.720Z,101554.61
2023-04-30T10:57:08.536Z,101552.15
2023-04-30T11:01:09.481Z,101537.29
2023-04-30T11:05:04.512Z,101543.20
2023-04-30T11:09:00.068Z,101545.76
2023-04-30T11:12:52.451Z,101543.73
2023-04-30T11:16:35.886Z,101548.74
2023-04-30T11:20:26.359Z,101552.13
2023-04-30T11:24:15.708Z,101534.61
2023-04-30T11:28:07.705Z,101537.26
2023-04-30T11:31:38.753Z,101538.29
2023-04-30T11:35:22.186Z,101541.24
2023-04-30T11:39:08.842Z,101537.09
2023-04-30T11:42:52.398Z,101534.75
2023-04-30T11:46:53.524Z,101526.16
2023-04-30T11:50:30.466Z,101540.48
2023-04-30T11:54:19.966Z,101536.84
2023-04-30T11:58:09.540Z,101536.89
2023-04-30T12:01:59.777Z,101539.12
2023-04-30T12:05:57.858Z,101547.90
2023-04-30T12:09:48.181Z,101539.45
2023-04-30T12:13:38.312Z,101527.81
2023-04-30T12:17:27.868Z,101538.70
2023-04-30T12:21:38.701Z,101536.23
2023-04-30T12:25:36.803Z,101527.46
2023-04-30T12:29:27.661Z,101531.95
2023-04-30T12:33:23.033Z,101527.73
2023-04-30T12:37:11.409Z,101534.73
2023-04-30T12:41:01.423Z,101527.61
2023-04-30T12:45:05.328Z,101519.81
2023-04-30T12:48:55.617Z,101516.30
2023-04-30T12:52:49.102Z,101510.77
2023-04-30T12:56:48.562Z,101510.86
2023-04-30T13:05:04.464Z,101506.95
2023-04-30T13:09:05.274Z,101514.11
2023-04-30T13:13:35.266Z,101515.96
2023-04-30T13:18:04.590Z,101515.30
2023-04-30T13:22:34.090Z,101517.30
2023-04-30T13:26:41.549Z,101500.83
2023-04-30T13:30:17.345Z,101502.09
2023-04-30T13:34:01.728Z,101507.30
2023-04-30T13:38:32.425Z,101505.69
2023-04-30T13:46:38.355Z,101501.80
2023-04-30T13:50:30.777Z,101500.98
2023-04-30T13:54:52.106Z,101503.59
2023-04-30T13:58:35.162Z,101495.26
2023-04-30T14:02:15.300Z,101506.68
2023-04-30T14:06:27.360Z,101509.88
2023-04-30T14:24:43.831Z,101490.23
2023-04-30T14:28:27.850Z,101487.02
2023-04-30T14:33:03.003Z,101490.20
2023-04-30T14:37:30.820Z,101489.48
2023-04-30T14:41:47.917Z,101479.98
2023-04-30T14:49:14.231Z,101484.98
2023-04-30T14:53:39.475Z,101480.35
2023-04-30T15:01:50.697Z,101482.48
2023-04-30T15:06:02.985Z,101480.76
2023-04-30T15:09:21.708Z,101483.95
2023-04-30T15:13:22.964Z,101479.14
2023-04-30T15:21:48.939Z,101480.72
2023-04-30T15:32:38.589Z,101479.48
2023-04-30T15:47:30.380Z,101472.61
2023-04-30T15:50:57.445Z,101478.70
2023-04-30T15:54:42.069Z,101477.32
2023-04-30T15:58:42.821Z,101473.00
2023-04-30T16:06:38.529Z,101472.88
2023-04-30T16:11:04.720Z,101477.00
2023-04-30T16:15:22.381Z,101474.81
2023-04-30T16:19:04.624Z,101471.17
2023-04-30T16:22:38.961Z,101468.72
2023-04-30T16:29:27.580Z,101468.38
2023-04-30T16:33:38.903Z,101472.27
2023-04-30T16:37:32.752Z,101474.66
2023-04-30T16:41:40.261Z,101470.23
2023-04-30T16:46:00.874Z,101465.69
2023-04-30T16:50:09.495Z,101466.16
2023-04-30T16:53:57.405Z,101461.52
2023-04-30T16:57:44.927Z,101463.45
2023-04-30T17:01:48.521Z,101464.69
2023-04-30T17:05:40.288Z,101468.17
2023-04-30T17:09:28.912Z,101463.04
2023-04-30T17:13:17.190Z,101464.23
2023-04-30T17:16:47.465Z,101467.34
2023-04-30T17:20:50.383Z,101471.23
2023-04-30T17:24:31.904Z,101472.89
2023-04-30T17:28:59.360Z,101472.91
2023-04-30T17:33:27.008Z,101479.75
2023-04-30T17:37:54.493Z,101480.40
2023-04-30T17:42:22.238Z,101485.25
2023-04-30T17:46:52.020Z,101491.66
2023-04-30T17:51:20.513Z,101490.52
2023-04-30T17:55:44.563Z,101496.41
2023-04-30T17:59:08.528Z,101494.36
2023-04-30T18:02:59.998Z,101492.41
2023-04-30T18:06:47.060Z,101496.11
2023-04-30T18:10:34.825Z,101501.98
2023-04-30T18:14:23.189Z,101501.17
2023-04-30T18:18:35.492Z,101496.57
2023-04-30T18:22:26.644Z,101499.87
2023-04-30T18:26:34.089Z,101511.84
2023-04-30T18:31:04.849Z,101517.77
2023-04-30T18:35:35.263Z,101519.23
2023-04-30T18:39:00.436Z,101518.54
2023-04-30T18:43:28.374Z,101517.48
2023-04-30T18:52:16.299Z,101523.70
2023-04-30T18:56:01.778Z,101526.86
2023-04-30T19:00:10.817Z,101530.75
2023-04-30T19:04:27.742Z,101533.48
2023-04-30T19:08:58.869Z,101537.45
2023-04-30T19:12:35.670Z,101539.08
2023-04-30T19:16:42.033Z,101542.23
2023-04-30T19:20:45.982Z,101544.89
2023-04-30T19:24:29.406Z,101544.80
2023-04-30T19:28:18.545Z,101547.41
2023-04-30T19:32:11.465Z,101548.30
2023-04-30T19:35:25.281Z,101549.34
2023-04-30T19:39:04.494Z,101550.59
2023-04-30T19:43:01.464Z,101549.84
2023-04-30T19:46:54.794Z,101556.11
2023-04-30T19:54:28.597Z,101557.10
2023-04-30T19:58:19.332Z,101563.81
2023-04-30T20:01:46.076Z,101570.95
2023-04-30T20:05:49.082Z,101571.59
2023-04-30T20:09:29.883Z,101571.91
2023-04-30T20:13:18.261Z,101573.98
2023-04-30T20:17:06.126Z,101571.73
2023-04-30T20:20:40.426Z,101575.55
2023-04-30T20:28:52.660Z,101573.73
2023-04-30T20:32:58.021Z,101573.63
2023-04-30T20:37:07.787Z,101575.26
2023-04-30T20:40:38.881Z,101573.19
2023-04-30T20:49:11.964Z,101579.39
2023-04-30T20:52:52.237Z,101581.59
2023-04-30T20:56:42.944Z,101584.29
2023-04-30T21:00:03.862Z,101589.70
2023-04-30T21:04:04.382Z,101592.71
2023-04-30T21:08:08.027Z,101592.52
2023-04-30T21:11:56.277Z,101598.39
2023-04-30T21:15:44.204Z,101599.95
2023-04-30T21:19:48.176Z,101602.42
2023-04-30T21:23:36.049Z,101601.17
2023-04-30T21:27:24.178Z,101599.41
2023-04-30T21:31:01.591Z,101603.50
2023-04-30T21:35:05.299Z,101608.95
2023-04-30T21:39:35.134Z,101605.34
2023-04-30T21:43:48.019Z,101603.73
2023-04-30T21:48:15.405Z,101611.11
2023-04-30T21:52:53.675Z,101615.06
2023-04-30T21:57:27.622Z,101620.84
2023-04-30T22:01:32.305Z,101626.05
2023-04-30T22:06:01.291Z,101628.20
2023-04-30T22:14:12.496Z,101632.71
2023-04-30T22:20:03.840Z,101629.11
2023-04-30T22:24:11.474Z,101628.80
2023-04-30T22:28:00.824Z,101629.23
2023-04-30T22:31:50.927Z,101627.48
2023-04-30T22:35:42.323Z,101630.20
2023-04-30T22:39:33.335Z,101625.93
2023-04-30T22:43:07.222Z,101628.27
2023-04-30T22:47:36.231Z,101629.66
2023-04-30T22:52:05.128Z,101631.79
2023-04-30T22:56:34.352Z,101633.67
2023-04-30T23:01:05.311Z,101636.13
2023-04-30T23:08:58.022Z,101638.63
2023-04-30T23:12:48.037Z,101639.60
2023-04-30T23:16:39.911Z,101639.11
2023-04-30T23:20:33.530Z,101641.14
2023-04-30T23:23:48.252Z,101635.34
2023-04-30T23:27:37.887Z,101639.52
2023-04-30T23:31:27.545Z,101633.93
2023-04-30T23:39:26.950Z,101643.27
2023-04-30T23:48:20.287Z,101633.52
2023-04-30T23:52:49.226Z,101634.69
2023-04-30T23:57:18.069Z,101638.61
